createdAt,value
2018-12-20T00:00:09.744Z,1.77
2018-12-20T00:05:12.254Z,2.33
2018-12-20T00:10:14.768Z,2.15
2018-12-20T00:15:17.354Z,1.43
2018-12-20T00:20:19.924Z,1.77
2018-12-20T00:25:22.537Z,1.77
2018-12-20T00:30:25.262Z,2.00
2018-12-20T00:35:27.926Z,1.37
2018-12-20T00:40:31.022Z,2.90
2018-12-20T00:45:33.718Z,1.87
2018-12-20T00:50:36.446Z,1.97
2018-12-20T00:55:39.437Z,1.87
2018-12-20T01:00:41.944Z,2.93
2018-12-20T01:05:44.502Z,1.83
2018-12-20T01:10:47.000Z,1.90
2018-12-20T01:15:49.491Z,1.10
2018-12-20T01:20:52.105Z,1.53
2018-12-20T01:25:54.927Z,2.10
2018-12-20T01:30:57.594Z,1.77
2018-12-20T01:36:00.893Z,1.67
2018-12-20T01:41:03.496Z,1.63
2018-12-20T01:46:06.193Z,1.77
2018-12-20T01:51:08.877Z,2.13
2018-12-20T01:56:12.215Z,1.20
2018-12-20T02:01:14.929Z,1.83
2018-12-20T02:06:17.670Z,2.67
2018-12-20T02:11:20.548Z,1.43
2018-12-20T02:16:23.256Z,1.60
2018-12-20T02:21:25.965Z,1.37
2018-12-20T02:26:28.710Z,1.63
2018-12-20T02:31:31.575Z,1.70
2018-12-20T02:36:34.618Z,1.63
2018-12-20T02:41:38.125Z,1.30
2018-12-20T02:46:40.791Z,2.13
2018-12-20T02:51:43.454Z,1.70
2018-12-20T02:56:46.389Z,1.40
2018-12-20T03:01:49.262Z,1.67
2018-12-20T03:06:51.893Z,1.73
2018-12-20T03:11:54.377Z,1.20
2018-12-20T03:16:57.056Z,1.10
2018-12-20T03:21:59.964Z,1.50
2018-12-20T03:27:02.676Z,1.20
2018-12-20T03:32:05.365Z,2.17
2018-12-20T03:37:08.049Z,1.30
2018-12-20T03:42:10.794Z,1.67
2018-12-20T03:47:14.227Z,1.27
2018-12-20T03:52:17.053Z,1.57
2018-12-20T03:57:19.822Z,1.20
2018-12-20T04:02:24.451Z,1.37
2018-12-20T04:07:27.497Z,1.20
2018-12-20T04:12:30.320Z,2.13
2018-12-20T04:17:33.050Z,1.37
2018-12-20T04:22:35.730Z,1.70
2018-12-20T04:27:39.436Z,1.77
2018-12-20T04:32:42.073Z,1.17
2018-12-20T04:37:45.246Z,1.17
2018-12-20T04:42:47.941Z,1.23
2018-12-20T04:47:50.808Z,1.30
2018-12-20T04:52:53.596Z,1.33
2018-12-20T04:57:56.255Z,1.30
2018-12-20T05:02:58.931Z,1.60
2018-12-20T05:08:01.721Z,1.10
2018-12-20T05:13:04.485Z,1.50
2018-12-20T05:18:07.042Z,1.30
2018-12-20T05:23:09.912Z,1.47
2018-12-20T05:28:12.553Z,1.63
2018-12-20T05:33:15.524Z,1.30
2018-12-20T05:38:18.143Z,1.50
2018-12-20T05:43:20.920Z,1.80
2018-12-20T05:48:24.055Z,1.97
2018-12-20T05:53:26.814Z,1.50
2018-12-20T05:58:29.505Z,1.87
2018-12-20T06:03:32.012Z,1.20
2018-12-20T06:08:34.664Z,1.53
2018-12-20T06:13:37.460Z,1.50
2018-12-20T06:18:40.957Z,2.00
2018-12-20T06:23:43.613Z,1.70
2018-12-20T06:28:46.305Z,1.40
2018-12-20T06:33:48.948Z,1.10
2018-12-20T06:38:51.698Z,1.20
2018-12-20T06:43:54.163Z,1.67
2018-12-20T06:48:56.628Z,1.23
2018-12-20T06:53:59.092Z,1.37
2018-12-20T06:59:01.591Z,1.37
2018-12-20T07:04:04.076Z,1.50
2018-12-20T07:09:07.691Z,1.33
2018-12-20T07:14:10.147Z,1.70
2018-12-20T07:19:12.614Z,3.47
2018-12-20T07:24:15.976Z,0.93
2018-12-20T07:29:18.450Z,1.50
2018-12-20T07:34:20.945Z,1.90
2018-12-20T07:39:23.432Z,1.33
2018-12-20T07:44:25.900Z,1.13
2018-12-20T07:49:28.365Z,1.83
2018-12-20T07:54:30.837Z,1.50
2018-12-20T07:59:33.300Z,4.73
2018-12-20T08:04:35.784Z,10.60
2018-12-20T08:09:38.741Z,13.73
2018-12-20T08:14:41.241Z,13.93
2018-12-20T08:19:43.712Z,8.93
2018-12-20T08:24:46.184Z,9.13
2018-12-20T08:29:49.617Z,6.73
2018-12-20T08:34:52.085Z,5.70
2018-12-20T08:39:55.024Z,6.03
2018-12-20T08:44:57.488Z,7.30
2018-12-20T08:49:59.952Z,5.47
2018-12-20T08:55:02.577Z,4.27
2018-12-20T09:00:07.624Z,6.73
2018-12-20T09:05:10.126Z,3.90
2018-12-20T09:10:13.437Z,3.20
2018-12-20T09:15:15.960Z,3.93
2018-12-20T09:20:18.550Z,3.63
2018-12-20T09:25:21.667Z,3.33
2018-12-20T09:30:30.476Z,7.07
2018-12-20T09:35:28.702Z,4.27
2018-12-20T09:40:31.432Z,4.07
2018-12-20T09:45:33.936Z,5.30
2018-12-20T09:50:36.655Z,7.83
2018-12-20T09:55:39.120Z,15.77
2018-12-20T10:00:41.604Z,16.67
2018-12-20T10:05:44.119Z,14.50
2018-12-20T10:10:46.699Z,24.83
2018-12-20T10:15:49.196Z,24.63
2018-12-20T10:20:51.664Z,22.70
2018-12-20T10:25:54.165Z,22.27
2018-12-20T10:30:56.701Z,29.10
2018-12-20T10:35:59.204Z,24.87
2018-12-20T10:41:01.680Z,26.93
2018-12-20T10:46:04.212Z,21.83
2018-12-20T10:51:06.687Z,19.93
2018-12-20T10:56:09.206Z,19.23
2018-12-20T11:01:17.445Z,18.47
2018-12-20T11:06:25.465Z,21.67
2018-12-20T11:11:29.888Z,20.07
2018-12-20T11:16:41.120Z,22.07
2018-12-20T11:21:45.676Z,19.43
2018-12-20T11:26:48.102Z,17.77
2018-12-20T11:31:50.580Z,18.93
2018-12-20T11:36:53.053Z,16.90
2018-12-20T11:41:55.525Z,16.83
2018-12-20T11:46:58.009Z,19.57
2018-12-20T11:52:00.477Z,17.10
2018-12-20T11:57:02.941Z,18.87
2018-12-20T12:02:05.461Z,17.43
2018-12-20T12:07:08.082Z,16.77
2018-12-20T12:12:10.815Z,18.80
2018-12-20T12:17:13.550Z,14.53
2018-12-20T12:22:16.044Z,16.00
2018-12-20T12:27:18.701Z,14.33
2018-12-20T12:32:21.172Z,13.77
2018-12-20T12:37:23.708Z,11.23
2018-12-20T12:42:26.248Z,14.00
2018-12-20T12:47:34.456Z,13.33
2018-12-20T12:52:36.927Z,11.20
2018-12-20T12:57:39.457Z,13.23
2018-12-20T13:02:42.025Z,10.77
2018-12-20T13:07:44.520Z,14.27
2018-12-20T13:12:46.996Z,13.10
2018-12-20T13:17:49.712Z,12.70
2018-12-20T13:22:52.400Z,12.03
2018-12-20T13:27:54.892Z,10.40
2018-12-20T13:32:58.163Z,11.60
2018-12-20T13:38:00.636Z,11.40
2018-12-20T13:43:03.193Z,9.40
2018-12-20T13:48:05.737Z,14.60
2018-12-20T13:53:08.209Z,10.37
2018-12-20T13:58:10.716Z,13.00
2018-12-20T14:03:13.180Z,10.93
2018-12-20T14:08:15.754Z,13.07
2018-12-20T14:13:18.248Z,8.63
2018-12-20T14:18:20.712Z,9.60
2018-12-20T14:23:23.336Z,11.23
2018-12-20T14:28:25.885Z,15.40
2018-12-20T14:33:29.231Z,10.40
2018-12-20T14:38:32.144Z,11.13
2018-12-20T14:43:34.645Z,10.73
2018-12-20T14:48:39.461Z,12.60
2018-12-20T14:53:41.773Z,11.00
2018-12-20T14:58:44.288Z,8.60
2018-12-20T15:03:46.764Z,9.00
2018-12-20T15:08:49.612Z,9.23
2018-12-20T15:13:52.093Z,7.57
2018-12-20T15:18:54.592Z,8.40
2018-12-20T15:23:57.070Z,13.60
2018-12-20T15:28:59.553Z,16.30
2018-12-20T15:34:02.045Z,21.53
2018-12-20T15:39:06.952Z,25.20
2018-12-20T15:44:09.450Z,20.10
2018-12-20T15:49:11.932Z,23.77
2018-12-20T15:54:14.573Z,22.53
2018-12-20T15:59:17.112Z,25.87
2018-12-20T16:04:19.621Z,30.07
2018-12-20T16:09:22.165Z,23.30
2018-12-20T16:14:24.703Z,23.80
2018-12-20T16:19:27.212Z,23.53
2018-12-20T16:24:29.676Z,25.87
2018-12-20T16:29:32.172Z,20.23
2018-12-20T16:34:34.672Z,20.63
2018-12-20T16:39:37.140Z,18.73
2018-12-20T16:44:39.656Z,21.03
2018-12-20T16:49:42.741Z,22.80
2018-12-20T16:54:45.212Z,16.00
2018-12-20T16:59:47.853Z,14.50
2018-12-20T17:04:50.324Z,18.50
2018-12-20T17:09:52.797Z,15.50
2018-12-20T17:14:55.292Z,14.87
2018-12-20T17:19:57.756Z,12.07
2018-12-20T17:25:00.392Z,17.00
2018-12-20T17:30:02.911Z,15.03
2018-12-20T17:35:05.546Z,15.07
2018-12-20T17:40:08.181Z,12.33
2018-12-20T17:45:10.994Z,14.90
2018-12-20T17:50:13.492Z,11.67
2018-12-20T17:55:15.955Z,13.80
2018-12-20T18:00:18.609Z,14.97
2018-12-20T18:05:21.112Z,11.00
2018-12-20T18:10:23.608Z,11.55
2018-12-20T18:15:26.409Z,13.90
2018-12-20T18:20:28.869Z,9.40
2018-12-20T18:25:31.768Z,10.83
2018-12-20T18:30:34.881Z,14.53
2018-12-20T18:35:37.872Z,13.13
2018-12-20T18:40:40.889Z,19.37
2018-12-20T18:45:44.704Z,20.10
2018-12-20T18:50:47.169Z,17.17
2018-12-20T18:55:49.650Z,16.20
2018-12-20T19:00:52.140Z,16.43
2018-12-20T19:05:54.785Z,15.43
2018-12-20T19:10:57.256Z,16.63
2018-12-20T19:15:59.720Z,16.00
2018-12-20T19:21:02.188Z,17.50
2018-12-20T19:26:04.668Z,21.67
2018-12-20T19:31:07.147Z,15.67
2018-12-20T19:36:09.636Z,15.47
2018-12-20T19:41:13.043Z,18.60
2018-12-20T19:46:15.935Z,16.20
2018-12-20T19:51:19.059Z,17.97
2018-12-20T19:56:22.357Z,19.20
2018-12-20T20:01:25.566Z,16.50
2018-12-20T20:06:28.674Z,15.43
2018-12-20T20:11:31.667Z,15.87
2018-12-20T20:16:34.676Z,15.30
2018-12-20T20:21:37.689Z,16.23
2018-12-20T20:26:40.694Z,13.63
2018-12-20T20:31:43.193Z,13.83
2018-12-20T20:36:45.729Z,14.00
2018-12-20T20:41:48.196Z,12.23
2018-12-20T20:46:51.334Z,14.30
2018-12-20T20:51:54.894Z,11.83
2018-12-20T20:56:57.565Z,12.70
2018-12-20T21:02:00.064Z,12.00
2018-12-20T21:07:02.565Z,13.30
2018-12-20T21:12:05.056Z,12.40
2018-12-20T21:17:07.534Z,11.90
2018-12-20T21:22:10.127Z,11.37
2018-12-20T21:27:12.620Z,9.13
2018-12-20T21:32:15.122Z,14.07
2018-12-20T21:37:17.597Z,10.37
2018-12-20T21:42:20.132Z,10.67
2018-12-20T21:47:22.601Z,10.50
2018-12-20T21:52:25.068Z,10.77
2018-12-20T21:57:27.610Z,10.73
2018-12-20T22:02:30.149Z,10.10
2018-12-20T22:07:32.672Z,11.90
2018-12-20T22:12:35.155Z,9.33
2018-12-20T22:17:37.632Z,8.93
2018-12-20T22:22:40.229Z,8.63
2018-12-20T22:27:42.816Z,9.57
2018-12-20T22:32:46.570Z,8.37
2018-12-20T22:37:50.226Z,10.73
2018-12-20T22:42:52.696Z,9.47
2018-12-20T22:47:55.233Z,9.10
2018-12-20T22:52:57.981Z,6.93
2018-12-20T22:58:00.529Z,11.03
2018-12-20T23:03:03.165Z,10.90
2018-12-20T23:08:05.665Z,6.90
2018-12-20T23:13:08.161Z,8.90
2018-12-20T23:18:10.884Z,8.93
2018-12-20T23:23:14.113Z,10.27
2018-12-20T23:28:16.597Z,9.10
2018-12-20T23:33:19.063Z,8.93
2018-12-20T23:38:21.528Z,8.70
2018-12-20T23:43:24.024Z,6.20
2018-12-20T23:48:26.483Z,7.67
2018-12-20T23:53:29.869Z,6.27
2018-12-20T23:58:32.360Z,6.47
